Time;durP1;ratioP1;P1;durP2;ratioP2;P2;SDS_P1;SDS_P2;PMS_P1;PMS_P2;Temp;Humidity;BMP_temperature;BMP_pressure;BME280_temperature;BME280_humidity;BME280_pressure;Samples;Min_cycle;Max_cycle;Signal;HPM_P1;HPM_P2
2022/10/29 00:01:14;;;;;;;54.50;31.33;;;7.10;99.90;;;;;;5111666;28;20012;-74
2022/10/29 00:03:40;;;;;;;52.10;30.17;;;7.10;99.90;;;;;;5111972;28;20473;-74
2022/10/29 00:06:09;;;;;;;50.90;28.25;;;7.00;99.90;;;;;;5111959;28;20059;-74
2022/10/29 00:08:37;;;;;;;56.40;30.92;;;6.90;99.90;;;;;;5113384;28;20205;-75
2022/10/29 00:11:17;;;;;;;44.70;27.85;;;6.90;99.90;;;;;;5113546;28;20028;-73
2022/10/29 00:13:43;;;;;;;46.03;26.45;;;6.80;99.90;;;;;;5113687;28;20561;-73
2022/10/29 00:16:15;;;;;;;44.30;25.48;;;6.70;99.90;;;;;;5113537;28;20385;-75
2022/10/29 00:18:41;;;;;;;34.95;21.52;;;6.60;99.90;;;;;;5112252;28;20027;-75
2022/10/29 00:21:09;;;;;;;36.25;21.90;;;6.40;99.90;;;;;;5111967;28;20020;-75
2022/10/29 00:23:35;;;;;;;38.75;22.83;;;6.40;99.90;;;;;;5113239;28;20484;-75
2022/10/29 00:26:01;;;;;;;46.70;27.95;;;6.40;99.90;;;;;;5117617;28;20028;-73
2022/10/29 00:28:28;;;;;;;44.13;26.92;;;6.50;99.90;;;;;;5093023;28;20451;-75
2022/10/29 00:30:54;;;;;;;47.90;26.15;;;6.50;99.90;;;;;;5092910;28;20489;-74
2022/10/29 00:33:20;;;;;;;35.33;21.00;;;6.40;99.90;;;;;;5110311;28;20031;-74
2022/10/29 00:36:00;;;;;;;50.70;27.25;;;6.40;99.90;;;;;;5111993;28;20027;-75
2022/10/29 00:38:26;;;;;;;34.58;21.90;;;6.50;99.90;;;;;;5113335;28;20055;-74
2022/10/29 00:40:53;;;;;;;36.00;21.95;;;6.40;99.90;;;;;;5111841;28;20040;-74
2022/10/29 00:43:21;;;;;;;30.42;19.50;;;6.50;99.90;;;;;;5129199;27;20031;-75
2022/10/29 00:45:50;;;;;;;30.48;20.00;;;6.50;99.90;;;;;;5110580;28;20032;-74
2022/10/29 00:48:16;;;;;;;34.00;21.30;;;6.50;99.90;;;;;;5095165;28;20023;-74
2022/10/29 00:50:44;;;;;;;30.45;18.42;;;6.50;99.90;;;;;;5096424;28;20422;-74
2022/10/29 00:53:10;;;;;;;28.23;19.20;;;6.50;99.90;;;;;;5095076;28;20412;-74
2022/10/29 00:55:36;;;;;;;30.67;20.23;;;6.50;99.90;;;;;;5095105;28;20039;-74
2022/10/29 00:58:02;;;;;;;36.60;20.92;;;6.40;99.90;;;;;;5096572;28;20047;-74
2022/10/29 01:00:27;;;;;;;30.38;20.10;;;6.40;99.90;;;;;;5094986;28;20054;-74
2022/10/29 01:02:53;;;;;;;34.33;20.52;;;6.40;99.90;;;;;;5095026;28;20060;-74
2022/10/29 01:05:22;;;;;;;38.75;22.77;;;6.40;99.90;;;;;;5094778;28;20134;-74
2022/10/29 01:07:47;;;;;;;39.72;22.58;;;6.40;99.90;;;;;;5094794;28;20074;-73
2022/10/29 01:10:15;;;;;;;39.55;22.80;;;6.50;99.90;;;;;;5096160;28;20024;-74
2022/10/29 01:12:54;;;;;;;42.55;24.20;;;6.50;99.90;;;;;;5095969;28;20015;-74
2022/10/29 01:15:37;;;;;;;39.97;22.65;;;6.50;99.90;;;;;;5110797;28;20035;-74
2022/10/29 01:18:20;;;;;;;42.10;23.98;;;6.50;99.90;;;;;;5116523;28;20418;-74
2022/10/29 01:20:57;;;;;;;40.47;25.38;;;6.50;99.90;;;;;;5116236;28;20019;-73
2022/10/29 01:23:44;;;;;;;30.25;18.42;;;6.60;99.90;;;;;;5116322;28;20091;-75
2022/10/29 01:26:42;;;;;;;33.88;21.17;;;6.50;99.90;;;;;;5103014;28;20075;-73
2022/10/29 01:29:32;;;;;;;33.10;20.48;;;6.40;99.90;;;;;;5095776;28;20026;-75
2022/10/29 01:32:07;;;;;;;47.38;26.38;;;6.40;99.90;;;;;;5103135;28;20020;-75
2022/10/29 01:34:38;;;;;;;35.45;20.77;;;6.40;99.90;;;;;;5116057;28;20492;-73
2022/10/29 01:37:19;;;;;;;30.15;19.33;;;6.40;99.90;;;;;;5115980;28;20031;-74
2022/10/29 01:40:03;;;;;;;48.35;25.60;;;6.40;99.90;;;;;;5114475;28;20051;-75
2022/10/29 01:42:45;;;;;;;37.72;23.63;;;6.40;99.90;;;;;;5114636;28;20027;-74
2022/10/29 01:45:25;;;;;;;54.95;26.73;;;6.40;99.90;;;;;;5115852;28;20038;-74
2022/10/29 01:48:00;;;;;;;37.40;22.33;;;6.50;99.90;;;;;;5115754;28;20085;-74
2022/10/29 01:50:27;;;;;;;32.88;19.88;;;6.40;99.90;;;;;;5115858;28;20023;-74
2022/10/29 01:52:54;;;;;;;45.03;18.77;;;6.30;99.90;;;;;;5115690;28;20372;-75
2022/10/29 01:55:22;;;;;;;25.50;16.30;;;6.20;99.90;;;;;;5115461;28;20030;-74
2022/10/29 01:57:48;;;;;;;26.95;17.33;;;6.10;99.90;;;;;;5115517;28;20015;-75
2022/10/29 02:00:18;;;;;;;34.90;21.55;;;6.10;99.90;;;;;;5115439;28;20024;-73
2022/10/29 02:03:18;;;;;;;39.90;22.58;;;6.10;99.90;;;;;;5106928;28;20021;-73
2022/10/29 02:06:01;;;;;;;49.70;28.85;;;6.30;99.90;;;;;;5093651;28;20122;-74
2022/10/29 02:08:27;;;;;;;54.92;27.25;;;6.40;99.90;;;;;;5094950;28;20035;-74
2022/10/29 02:10:57;;;;;;;48.13;26.85;;;6.60;99.90;;;;;;5094925;28;20572;-74
2022/10/29 02:13:30;;;;;;;39.40;24.33;;;6.60;99.90;;;;;;5094809;28;20410;-74
2022/10/29 02:15:57;;;;;;;31.63;20.75;;;6.60;99.90;;;;;;5094909;28;20032;-75
2022/10/29 02:18:23;;;;;;;33.40;19.70;;;6.40;99.90;;;;;;5094625;28;20043;-73
2022/10/29 02:20:48;;;;;;;36.58;22.02;;;6.40;99.90;;;;;;5094742;28;20020;-75
2022/10/29 02:23:15;;;;;;;41.25;22.17;;;6.30;99.90;;;;;;5094440;28;20096;-75
2022/10/29 02:25:41;;;;;;;50.03;27.17;;;6.30;99.90;;;;;;5099081;28;20428;-74
2022/10/29 02:28:07;;;;;;;36.78;21.90;;;6.40;99.90;;;;;;5094497;28;20473;-75
2022/10/29 02:30:32;;;;;;;49.38;26.58;;;6.40;99.90;;;;;;5094492;28;20062;-74
2022/10/29 02:32:58;;;;;;;60.33;30.17;;;6.40;99.90;;;;;;5110791;28;20023;-75
2022/10/29 02:35:24;;;;;;;46.75;25.95;;;6.50;99.90;;;;;;5114839;28;20023;-76
2022/10/29 02:37:49;;;;;;;48.15;26.38;;;6.60;99.90;;;;;;5113446;28;20026;-75
2022/10/29 02:40:15;;;;;;;48.00;27.20;;;6.50;99.90;;;;;;5114712;28;20371;-74
2022/10/29 02:42:41;;;;;;;52.05;28.50;;;6.60;99.90;;;;;;5114764;28;20024;-75
2022/10/29 02:45:07;;;;;;;67.35;34.15;;;6.60;99.90;;;;;;5100141;28;20028;-73
2022/10/29 02:47:32;;;;;;;56.80;31.67;;;6.80;99.90;;;;;;5094228;28;20024;-74
2022/10/29 02:49:58;;;;;;;47.50;25.80;;;6.80;99.90;;;;;;5092984;28;20107;-74
2022/10/29 02:52:23;;;;;;;47.10;28.67;;;6.70;99.90;;;;;;5094203;28;20016;-74
2022/10/29 02:54:50;;;;;;;39.33;23.40;;;6.70;99.90;;;;;;5094147;28;20553;-73
2022/10/29 02:57:16;;;;;;;31.13;19.40;;;6.70;99.90;;;;;;5092687;28;20122;-73
2022/10/29 02:59:41;;;;;;;39.70;22.65;;;6.50;99.90;;;;;;5092705;28;20052;-74
2022/10/29 03:02:07;;;;;;;37.75;20.23;;;6.40;99.90;;;;;;5094066;28;20066;-74
2022/10/29 03:04:32;;;;;;;34.08;20.25;;;6.30;99.90;;;;;;5096533;28;20034;-75
2022/10/29 03:06:59;;;;;;;30.55;18.38;;;6.30;99.90;;;;;;5113867;28;20027;-74
2022/10/29 03:09:24;;;;;;;29.40;18.00;;;6.30;99.90;;;;;;5112929;28;20024;-74
2022/10/29 03:11:50;;;;;;;34.13;19.80;;;6.30;99.90;;;;;;5113010;28;20020;-74
2022/10/29 03:14:16;;;;;;;30.77;19.05;;;6.20;99.90;;;;;;5112743;28;20024;-75
2022/10/29 03:16:41;;;;;;;37.65;21.58;;;6.20;99.90;;;;;;5114000;28;20023;-74
2022/10/29 03:19:07;;;;;;;43.50;23.17;;;6.20;99.90;;;;;;5129840;27;20025;-74
2022/10/29 03:21:32;;;;;;;51.97;26.27;;;6.30;99.90;;;;;;5130026;27;20058;-75
2022/10/29 03:23:59;;;;;;;49.72;26.45;;;6.40;99.90;;;;;;5114048;28;20030;-74
2022/10/29 03:26:24;;;;;;;50.88;26.27;;;6.50;99.90;;;;;;5098182;28;20036;-75
2022/10/29 03:28:50;;;;;;;40.55;23.58;;;6.50;99.90;;;;;;5093488;28;20431;-74
2022/10/29 03:31:16;;;;;;;46.20;25.40;;;6.50;99.90;;;;;;5094636;28;20050;-74
2022/10/29 03:33:41;;;;;;;55.40;28.88;;;6.50;99.90;;;;;;5112602;28;20069;-74
2022/10/29 03:36:07;;;;;;;49.55;25.40;;;6.50;99.90;;;;;;5113921;28;20020;-75
2022/10/29 03:38:33;;;;;;;40.50;24.20;;;6.40;99.90;;;;;;5113134;28;20500;-75
2022/10/29 03:40:59;;;;;;;45.58;25.80;;;6.40;99.90;;;;;;5112521;28;20020;-74
2022/10/29 03:43:25;;;;;;;53.28;26.83;;;6.30;99.90;;;;;;5112162;28;20016;-75
2022/10/29 03:45:56;;;;;;;50.90;25.23;;;6.30;99.90;;;;;;5113470;28;20085;-73
2022/10/29 03:48:23;;;;;;;43.72;24.90;;;6.30;99.90;;;;;;5113256;28;20481;-73
2022/10/29 03:50:57;;;;;;;51.45;27.70;;;6.40;99.90;;;;;;5113493;28;20496;-73
2022/10/29 03:53:24;;;;;;;48.80;26.08;;;6.40;99.90;;;;;;5113302;28;20477;-73
2022/10/29 03:55:54;;;;;;;58.20;30.75;;;6.40;99.90;;;;;;5112118;28;20051;-75
2022/10/29 03:58:20;;;;;;;73.35;33.65;;;6.60;99.90;;;;;;5113214;28;20106;-73
2022/10/29 04:00:55;;;;;;;64.40;34.00;;;6.70;99.90;;;;;;5129303;28;20020;-75
2022/10/29 04:03:20;;;;;;;68.85;32.05;;;6.80;99.90;;;;;;5113171;28;20023;-75
2022/10/29 04:05:46;;;;;;;64.07;34.75;;;6.80;99.90;;;;;;5112099;28;20094;-75
2022/10/29 04:08:12;;;;;;;71.32;33.55;;;6.90;99.90;;;;;;5113134;28;20027;-75
2022/10/29 04:10:37;;;;;;;72.50;33.58;;;7.00;99.90;;;;;;5113363;28;20102;-74
2022/10/29 04:13:03;;;;;;;67.00;33.17;;;6.90;99.90;;;;;;5113235;28;20027;-74
2022/10/29 04:15:28;;;;;;;59.65;31.55;;;7.00;99.90;;;;;;5129051;28;20023;-74
2022/10/29 04:17:54;;;;;;;64.57;32.58;;;7.00;99.90;;;;;;5113172;28;20505;-73
2022/10/29 04:20:19;;;;;;;63.30;32.17;;;7.00;99.90;;;;;;5116017;28;20035;-74
2022/10/29 04:22:50;;;;;;;66.47;33.00;;;7.10;99.90;;;;;;5117291;28;20026;-74
2022/10/29 04:25:15;;;;;;;66.43;33.05;;;7.10;99.90;;;;;;5126315;27;20044;-74
2022/10/29 04:27:41;;;;;;;67.97;32.65;;;7.20;99.90;;;;;;5095447;28;20030;-74
2022/10/29 04:30:07;;;;;;;59.05;31.50;;;7.20;99.90;;;;;;5096761;28;20069;-75
2022/10/29 04:32:33;;;;;;;55.90;28.98;;;7.10;99.90;;;;;;5110273;28;20032;-75
2022/10/29 04:34:58;;;;;;;61.80;29.95;;;7.10;99.90;;;;;;5117038;28;20024;-73
2022/10/29 04:37:26;;;;;;;56.38;29.55;;;7.00;99.90;;;;;;5116860;28;20411;-75
2022/10/29 04:39:52;;;;;;;64.63;29.92;;;6.90;99.90;;;;;;5097767;28;20040;-74
2022/10/29 04:42:17;;;;;;;60.88;29.77;;;6.90;99.90;;;;;;5096535;28;20435;-74
2022/10/29 04:44:43;;;;;;;64.43;30.33;;;6.80;99.90;;;;;;5096416;28;20445;-74
2022/10/29 04:47:08;;;;;;;77.40;34.25;;;6.80;99.90;;;;;;5096428;28;20393;-73
2022/10/29 04:49:34;;;;;;;79.43;33.13;;;6.80;99.90;;;;;;5096315;28;20373;-73
2022/10/29 04:51:59;;;;;;;66.75;31.73;;;6.70;99.90;;;;;;5096357;28;20036;-74
2022/10/29 04:54:25;;;;;;;67.45;31.58;;;6.70;99.90;;;;;;5111970;28;20020;-74
2022/10/29 04:56:51;;;;;;;69.90;30.15;;;6.80;99.90;;;;;;5095888;28;20031;-74
2022/10/29 04:59:16;;;;;;;57.63;29.55;;;6.80;99.90;;;;;;5095504;28;20110;-74
2022/10/29 05:01:42;;;;;;;65.63;31.13;;;6.90;99.90;;;;;;5094727;28;20020;-74
2022/10/29 05:04:07;;;;;;;63.15;30.33;;;6.90;99.90;;;;;;5095877;28;20024;-74
2022/10/29 05:06:33;;;;;;;66.55;30.73;;;7.00;99.90;;;;;;5096202;28;20085;-74
2022/10/29 05:08:58;;;;;;;59.90;29.73;;;7.00;99.90;;;;;;5095708;28;20393;-74
2022/10/29 05:11:24;;;;;;;60.72;32.00;;;7.20;99.90;;;;;;5095994;28;20103;-74
2022/10/29 05:13:50;;;;;;;62.13;31.48;;;7.30;99.90;;;;;;5095651;28;20032;-73
2022/10/29 05:16:15;;;;;;;57.47;30.05;;;7.30;99.90;;;;;;5095257;28;20496;-74
2022/10/29 05:18:41;;;;;;;63.05;31.75;;;7.40;99.90;;;;;;5095197;28;20031;-74
2022/10/29 05:21:06;;;;;;;64.03;31.27;;;7.50;99.90;;;;;;5095562;28;20049;-74
2022/10/29 05:23:32;;;;;;;66.93;32.50;;;7.50;99.90;;;;;;5095264;28;20024;-73
2022/10/29 05:25:58;;;;;;;65.82;31.65;;;7.50;99.90;;;;;;5093828;28;20036;-74
2022/10/29 05:28:24;;;;;;;54.38;28.30;;;7.50;99.90;;;;;;5075388;28;20020;-74
2022/10/29 05:30:51;;;;;;;63.63;32.45;;;7.60;99.90;;;;;;5092274;28;20035;-74
2022/10/29 05:33:19;;;;;;;64.53;31.08;;;7.60;99.90;;;;;;5113730;28;20106;-74
2022/10/29 05:35:45;;;;;;;60.38;29.95;;;7.60;99.90;;;;;;5131360;27;20024;-74
2022/10/29 05:38:12;;;;;;;54.72;29.02;;;7.70;99.90;;;;;;5115333;28;20028;-74
2022/10/29 05:40:38;;;;;;;54.10;27.85;;;7.70;99.90;;;;;;5131285;27;20054;-73
2022/10/29 05:43:04;;;;;;;56.53;30.15;;;7.70;99.90;;;;;;5110565;27;20393;-74
2022/10/29 05:45:30;;;;;;;62.70;29.50;;;7.70;99.90;;;;;;5093981;28;20036;-73
2022/10/29 05:47:57;;;;;;;51.80;27.65;;;7.80;99.90;;;;;;5110768;28;20031;-73
2022/10/29 05:50:23;;;;;;;59.03;28.35;;;7.70;99.90;;;;;;5095047;28;20056;-74
2022/10/29 05:52:55;;;;;;;64.70;29.55;;;7.80;99.90;;;;;;5093996;28;20046;-74
2022/10/29 05:55:21;;;;;;;67.80;32.63;;;7.70;99.90;;;;;;5094954;28;20020;-74
2022/10/29 05:57:46;;;;;;;59.88;30.65;;;7.70;99.90;;;;;;5094193;28;20024;-74
2022/10/29 06:00:12;;;;;;;57.60;30.88;;;7.70;99.90;;;;;;5093659;28;20081;-74
2022/10/29 06:02:38;;;;;;;58.10;30.50;;;7.70;99.90;;;;;;5080407;28;20025;-75
2022/10/29 06:05:04;;;;;;;72.63;34.17;;;7.70;99.90;;;;;;5074314;28;20028;-75
2022/10/29 06:07:29;;;;;;;65.22;30.95;;;7.80;99.90;;;;;;5074465;28;20036;-74
2022/10/29 06:09:55;;;;;;;54.83;27.63;;;7.80;99.90;;;;;;5072983;28;20386;-74
2022/10/29 06:12:20;;;;;;;54.78;29.42;;;7.80;99.90;;;;;;5092126;28;20137;-74
2022/10/29 06:14:46;;;;;;;54.80;29.23;;;7.90;99.90;;;;;;5130815;27;20028;-74
2022/10/29 06:17:11;;;;;;;62.60;31.15;;;7.90;99.90;;;;;;5113144;28;20023;-74
2022/10/29 06:19:37;;;;;;;58.03;29.65;;;8.00;99.90;;;;;;5092269;28;20022;-74
2022/10/29 06:22:03;;;;;;;53.88;29.40;;;8.00;99.90;;;;;;5093095;28;20050;-75
2022/10/29 06:24:29;;;;;;;57.88;30.48;;;8.10;99.90;;;;;;5092951;28;20116;-74
2022/10/29 06:26:54;;;;;;;57.65;29.60;;;8.10;99.90;;;;;;5093869;28;20051;-74
2022/10/29 06:29:20;;;;;;;54.90;30.38;;;8.20;99.90;;;;;;5092674;28;20035;-73
2022/10/29 06:31:45;;;;;;;54.20;28.77;;;8.20;99.90;;;;;;5101638;28;20094;-75
2022/10/29 06:34:12;;;;;;;57.70;29.75;;;8.20;99.90;;;;;;5114596;28;20028;-73
2022/10/29 06:36:37;;;;;;;55.80;27.48;;;8.30;99.90;;;;;;5130611;27;20019;-74
2022/10/29 06:39:03;;;;;;;59.80;30.10;;;8.30;99.90;;;;;;5114399;28;20023;-74
2022/10/29 06:41:29;;;;;;;57.58;30.13;;;8.40;99.90;;;;;;5113899;28;20059;-74
2022/10/29 06:43:54;;;;;;;58.35;28.35;;;8.50;99.90;;;;;;5114377;28;20020;-74
2022/10/29 06:46:20;;;;;;;53.13;28.63;;;8.50;99.90;;;;;;5120945;27;20047;-74
2022/10/29 06:48:45;;;;;;;50.67;26.33;;;8.60;99.90;;;;;;5093916;28;20099;-73
2022/10/29 06:51:12;;;;;;;56.28;26.50;;;8.70;99.90;;;;;;5093080;28;20071;-74
2022/10/29 06:53:38;;;;;;;49.92;26.33;;;8.80;99.90;;;;;;5093989;28;20055;-74
2022/10/29 06:56:03;;;;;;;52.75;25.45;;;8.90;99.90;;;;;;5093726;28;20020;-74
2022/10/29 06:58:29;;;;;;;53.70;26.90;;;9.00;99.90;;;;;;5077458;28;20021;-74
2022/10/29 07:00:54;;;;;;;53.70;26.60;;;9.10;99.90;;;;;;5081066;28;20032;-74
2022/10/29 07:03:22;;;;;;;44.83;22.63;;;9.20;99.90;;;;;;5093777;28;20020;-73
2022/10/29 07:05:55;;;;;;;45.13;24.08;;;9.20;99.90;;;;;;5093584;28;20032;-74
2022/10/29 07:08:20;;;;;;;38.97;22.23;;;9.30;99.90;;;;;;5093622;28;20028;-74
2022/10/29 07:10:50;;;;;;;38.63;21.23;;;9.30;99.90;;;;;;5093538;28;20077;-74
2022/10/29 07:13:15;;;;;;;41.17;21.38;;;9.40;99.90;;;;;;5092127;28;20065;-74
2022/10/29 07:15:41;;;;;;;38.97;23.50;;;9.40;99.90;;;;;;5093558;28;20028;-74
2022/10/29 07:18:08;;;;;;;41.97;22.33;;;9.50;99.90;;;;;;5093686;28;20020;-74
2022/10/29 07:20:39;;;;;;;36.20;21.38;;;9.50;99.90;;;;;;5093598;28;20035;-74
2022/10/29 07:23:05;;;;;;;41.03;21.45;;;9.50;99.90;;;;;;5093224;28;20441;-72
2022/10/29 07:25:31;;;;;;;41.08;22.27;;;9.50;99.90;;;;;;5092987;28;20110;-74
2022/10/29 07:28:05;;;;;;;40.97;20.58;;;9.60;99.90;;;;;;5107011;28;20027;-74
2022/10/29 07:30:31;;;;;;;38.97;20.77;;;9.60;99.90;;;;;;5113898;28;20465;-74
2022/10/29 07:32:57;;;;;;;40.17;22.15;;;9.60;99.90;;;;;;5095854;28;20028;-75
2022/10/29 07:35:22;;;;;;;38.28;21.02;;;9.70;99.90;;;;;;5092117;28;20097;-74
2022/10/29 07:37:48;;;;;;;43.75;23.60;;;9.80;99.90;;;;;;5093496;28;20126;-74
2022/10/29 07:40:13;;;;;;;41.95;22.52;;;9.80;99.90;;;;;;5093197;28;20044;-74
2022/10/29 07:42:39;;;;;;;39.53;22.17;;;9.90;99.90;;;;;;5091899;28;20024;-75
2022/10/29 07:45:05;;;;;;;43.42;23.45;;;10.00;99.90;;;;;;5108946;28;20398;-74
2022/10/29 07:47:31;;;;;;;42.35;22.90;;;10.10;99.90;;;;;;5093130;28;20103;-74
2022/10/29 07:49:57;;;;;;;41.80;20.77;;;10.10;99.90;;;;;;5092948;28;20062;-73
2022/10/29 07:52:22;;;;;;;44.67;24.25;;;10.20;99.90;;;;;;5092858;28;20032;-74
2022/10/29 07:54:48;;;;;;;46.05;24.67;;;10.30;99.90;;;;;;5095403;28;20028;-74
2022/10/29 07:57:14;;;;;;;49.92;24.70;;;10.40;99.90;;;;;;5096679;28;20031;-74
2022/10/29 07:59:40;;;;;;;40.58;21.40;;;10.60;99.90;;;;;;5096471;28;20106;-72
2022/10/29 08:02:09;;;;;;;43.33;24.15;;;10.60;99.90;;;;;;5095724;28;20475;-73
2022/10/29 08:04:35;;;;;;;38.85;21.90;;;10.70;99.90;;;;;;5093421;28;20016;-72
2022/10/29 08:07:00;;;;;;;44.00;21.83;;;10.80;99.90;;;;;;5095240;28;20043;-72
2022/10/29 08:09:26;;;;;;;42.80;22.33;;;10.90;99.90;;;;;;5096312;28;20028;-72
2022/10/29 08:11:52;;;;;;;36.13;21.00;;;11.10;99.90;;;;;;5096920;28;20016;-73
2022/10/29 08:14:17;;;;;;;43.00;22.27;;;11.30;99.90;;;;;;5096659;28;20060;-72
2022/10/29 08:16:43;;;;;;;39.95;21.75;;;11.40;99.90;;;;;;5096887;28;20056;-72
2022/10/29 08:19:08;;;;;;;39.78;22.45;;;11.50;99.90;;;;;;5096818;28;20054;-72
2022/10/29 08:21:34;;;;;;;37.03;22.15;;;11.60;99.90;;;;;;5095417;28;20081;-72
2022/10/29 08:23:59;;;;;;;42.33;22.25;;;11.80;99.90;;;;;;5111488;28;20814;-72
2022/10/29 08:26:25;;;;;;;35.95;21.48;;;11.90;99.90;;;;;;5111604;28;20048;-73
2022/10/29 08:28:51;;;;;;;33.85;19.77;;;12.00;99.90;;;;;;5096605;28;20099;-72
2022/10/29 08:31:18;;;;;;;34.67;20.08;;;12.00;99.90;;;;;;5100541;28;20050;-73
2022/10/29 08:33:43;;;;;;;34.35;20.40;;;12.10;99.90;;;;;;5102420;28;20469;-73
2022/10/29 08:36:09;;;;;;;39.22;21.60;;;12.20;99.90;;;;;;5093385;28;20135;-72
2022/10/29 08:38:35;;;;;;;33.15;19.45;;;12.20;99.90;;;;;;5093512;28;20039;-73
2022/10/29 08:41:40;;;;;;;32.70;19.73;;;12.40;99.90;;;;;;5092494;28;20489;-74
2022/10/29 08:44:31;;;;;;;34.47;20.60;;;12.60;99.90;;;;;;5092768;28;20069;-73
2022/10/29 08:47:12;;;;;;;31.52;19.48;;;12.80;99.90;;;;;;5096133;28;20038;-73
2022/10/29 08:49:52;;;;;;;32.85;19.45;;;13.00;99.90;;;;;;5091386;28;20020;-72
2022/10/29 08:52:24;;;;;;;36.13;19.13;;;13.10;99.90;;;;;;5089008;28;20058;-72
2022/10/29 08:55:06;;;;;;;22.60;15.45;;;13.30;99.90;;;;;;5088339;28;20039;-73
2022/10/29 08:57:38;;;;;;;25.15;14.10;;;13.50;99.90;;;;;;5085179;28;20572;-73
2022/10/29 09:00:13;;;;;;;23.13;14.82;;;13.70;99.90;;;;;;5086499;28;20016;-73
2022/10/29 09:02:39;;;;;;;24.73;13.43;;;13.80;99.90;;;;;;5087190;28;20032;-74
2022/10/29 09:05:11;;;;;;;18.70;11.27;;;13.90;99.90;;;;;;5085034;28;20112;-74
2022/10/29 09:07:48;;;;;;;21.35;13.55;;;14.10;99.90;;;;;;5104057;28;20035;-73
2022/10/29 09:10:32;;;;;;;21.92;12.90;;;14.30;99.90;;;;;;5086046;28;20042;-73
2022/10/29 09:13:08;;;;;;;20.77;12.98;;;14.40;99.90;;;;;;5088201;28;20976;-73
2022/10/29 09:16:00;;;;;;;21.55;12.13;;;14.60;99.90;;;;;;5090357;28;20443;-72
2022/10/29 09:18:58;;;;;;;20.70;11.88;;;14.60;99.90;;;;;;5094332;28;20036;-73
2022/10/29 09:21:24;;;;;;;24.98;14.23;;;14.80;99.90;;;;;;5092164;28;20028;-73
2022/10/29 09:24:17;;;;;;;20.95;14.40;;;15.00;99.90;;;;;;5088565;28;20062;-73
2022/10/29 09:26:56;;;;;;;24.95;12.95;;;15.10;99.90;;;;;;5105731;28;20460;-73
2022/10/29 09:29:50;;;;;;;22.52;13.18;;;15.20;99.90;;;;;;5115663;28;20028;-73
2022/10/29 09:32:28;;;;;;;17.00;10.13;;;15.40;99.90;;;;;;5098825;28;20111;-73
2022/10/29 09:35:13;;;;;;;19.23;10.18;;;15.40;99.90;;;;;;5115739;28;20028;-73
2022/10/29 09:37:41;;;;;;;15.70;9.70;;;15.60;99.90;;;;;;5088057;28;20034;-74
2022/10/29 09:40:26;;;;;;;16.88;11.02;;;15.50;99.90;;;;;;5110958;28;20130;-73
2022/10/29 09:42:52;;;;;;;17.20;10.73;;;15.50;99.90;;;;;;5104053;28;20035;-73
2022/10/29 09:45:22;;;;;;;17.45;10.82;;;15.50;99.90;;;;;;5094088;28;20359;-73
2022/10/29 09:47:56;;;;;;;17.75;9.77;;;15.50;99.90;;;;;;5091363;28;20518;-73
2022/10/29 09:50:49;;;;;;;16.83;9.98;;;15.60;99.90;;;;;;5092618;28;20099;-73
2022/10/29 09:53:14;;;;;;;18.90;10.63;;;15.50;99.90;;;;;;5093883;28;20519;-73
2022/10/29 09:55:43;;;;;;;16.10;10.30;;;15.60;99.90;;;;;;5088120;28;20020;-73
2022/10/29 09:58:18;;;;;;;21.13;12.32;;;15.50;99.90;;;;;;5081997;28;20036;-72
2022/10/29 10:00:43;;;;;;;20.65;11.82;;;15.50;99.90;;;;;;5089626;28;20020;-73
2022/10/29 10:03:09;;;;;;;14.57;9.70;;;15.60;99.90;;;;;;5090144;28;20034;-73
2022/10/29 10:05:54;;;;;;;18.40;10.00;;;15.70;99.90;;;;;;5090984;28;20516;-73
2022/10/29 10:08:20;;;;;;;13.32;8.63;;;16.00;99.90;;;;;;5092021;28;20020;-73
2022/10/29 10:10:55;;;;;;;14.57;9.80;;;16.20;99.90;;;;;;5092483;28;20054;-73
2022/10/29 10:13:28;;;;;;;17.52;10.35;;;16.30;99.90;;;;;;5093966;28;20564;-73
2022/10/29 10:15:56;;;;;;;18.10;10.05;;;16.30;99.90;;;;;;5092834;28;20108;-73
2022/10/29 10:18:31;;;;;;;24.30;13.70;;;16.40;99.90;;;;;;5093749;28;20053;-73
2022/10/29 10:21:03;;;;;;;17.42;10.95;;;16.30;99.90;;;;;;5094840;28;20031;-73
2022/10/29 10:23:54;;;;;;;16.52;10.18;;;16.30;99.90;;;;;;5094778;28;20032;-73
2022/10/29 10:26:41;;;;;;;25.25;12.57;;;16.30;99.90;;;;;;5094806;28;20119;-73
2022/10/29 10:29:16;;;;;;;20.58;12.23;;;16.30;99.90;;;;;;5074354;28;20037;-73
2022/10/29 10:31:49;;;;;;;18.40;10.75;;;16.20;99.90;;;;;;5092181;28;20045;-73
2022/10/29 10:34:34;;;;;;;19.17;10.65;;;16.20;99.90;;;;;;5110194;28;20154;-73
2022/10/29 10:37:20;;;;;;;14.73;8.63;;;16.30;99.90;;;;;;5094827;28;20032;-74
2022/10/29 10:39:58;;;;;;;17.88;10.38;;;16.40;99.90;;;;;;5093934;28;20052;-73
2022/10/29 10:42:33;;;;;;;16.85;9.38;;;16.50;99.90;;;;;;5094584;28;20012;-73
2022/10/29 10:45:13;;;;;;;20.25;11.82;;;16.70;99.90;;;;;;5105743;28;20027;-73
2022/10/29 10:47:46;;;;;;;35.55;13.27;;;16.80;99.90;;;;;;5114950;28;20016;-73
2022/10/29 10:50:24;;;;;;;19.13;10.50;;;17.00;99.90;;;;;;5114706;28;20474;-73
2022/10/29 10:52:53;;;;;;;14.98;9.05;;;17.10;99.90;;;;;;5114691;28;20028;-73
2022/10/29 10:55:36;;;;;;;15.52;10.10;;;17.20;99.90;;;;;;5114400;28;20020;-73
2022/10/29 10:58:02;;;;;;;22.80;9.57;;;17.40;99.90;;;;;;5130528;27;20020;-73
2022/10/29 11:00:33;;;;;;;17.58;9.32;;;17.60;99.90;;;;;;5113141;28;20030;-73
2022/10/29 11:03:07;;;;;;;17.25;9.93;;;17.70;99.90;;;;;;5114612;28;20047;-73
2022/10/29 11:05:36;;;;;;;16.85;9.48;;;17.80;99.90;;;;;;5100111;28;20045;-73
2022/10/29 11:08:21;;;;;;;14.32;8.43;;;17.90;99.90;;;;;;5094108;28;20462;-73
2022/10/29 11:11:10;;;;;;;21.95;10.65;;;18.10;99.90;;;;;;5092609;28;20055;-73
2022/10/29 11:13:40;;;;;;;22.08;9.25;;;18.10;99.90;;;;;;5092800;28;20024;-73
2022/10/29 11:16:30;;;;;;;12.15;8.45;;;17.90;99.90;;;;;;5093714;28;20024;-74
2022/10/29 11:19:04;;;;;;;15.25;8.57;;;17.80;99.90;;;;;;5092623;28;20020;-73
2022/10/29 11:21:41;;;;;;;15.68;8.98;;;17.70;99.90;;;;;;5093868;28;20495;-73
2022/10/29 11:24:31;;;;;;;15.82;9.48;;;17.60;99.90;;;;;;5093943;28;20412;-73
2022/10/29 11:27:01;;;;;;;17.88;8.77;;;17.50;99.90;;;;;;5093796;28;20485;-73
2022/10/29 11:29:52;;;;;;;16.50;7.90;;;17.60;99.90;;;;;;5093198;28;20413;-73
2022/10/29 11:32:47;;;;;;;16.85;8.57;;;17.70;99.90;;;;;;5112690;28;20019;-74
2022/10/29 11:35:16;;;;;;;16.48;8.98;;;17.70;99.90;;;;;;5102363;28;20476;-73
2022/10/29 11:38:00;;;;;;;18.73;10.02;;;17.80;99.90;;;;;;5092367;28;20027;-73
2022/10/29 11:41:03;;;;;;;18.05;8.32;;;17.80;99.90;;;;;;5092183;28;20085;-73
2022/10/29 11:43:30;;;;;;;14.70;7.80;;;17.80;99.90;;;;;;5093631;28;20133;-73
2022/10/29 11:46:09;;;;;;;12.18;7.60;;;17.90;99.90;;;;;;5093415;28;20032;-73
2022/10/29 11:49:12;;;;;;;13.52;7.93;;;18.00;99.90;;;;;;5092361;28;20034;-73
2022/10/29 11:52:12;;;;;;;10.32;7.13;;;18.00;99.90;;;;;;5093566;28;20024;-73
2022/10/29 11:54:59;;;;;;;14.10;7.50;;;18.00;99.90;;;;;;5109766;28;20041;-73
2022/10/29 11:57:42;;;;;;;17.30;7.20;;;18.10;99.90;;;;;;5112617;28;20026;-73
2022/10/29 12:00:19;;;;;;;15.52;7.88;;;18.10;99.90;;;;;;5112455;28;20019;-73
2022/10/29 12:02:48;;;;;;;14.05;7.10;;;18.10;99.90;;;;;;5112520;28;20034;-73
2022/10/29 12:05:38;;;;;;;16.27;8.00;;;18.10;99.90;;;;;;5113704;28;20449;-73
2022/10/29 12:08:34;;;;;;;13.55;7.78;;;18.10;99.90;;;;;;5113772;28;20015;-73
2022/10/29 12:11:23;;;;;;;13.85;7.70;;;18.10;99.90;;;;;;5112359;28;20039;-73
2022/10/29 12:13:59;;;;;;;10.60;6.82;;;18.10;99.90;;;;;;5108636;28;20376;-73
2022/10/29 12:16:44;;;;;;;15.30;8.10;;;18.10;99.90;;;;;;5092303;28;20028;-73
2022/10/29 12:19:58;;;;;;;10.45;6.53;;;18.00;99.90;;;;;;5092033;28;20078;-73
2022/10/29 12:22:34;;;;;;;16.10;6.97;;;17.90;99.90;;;;;;5083922;28;20028;-73
2022/10/29 12:25:20;;;;;;;13.95;7.03;;;17.80;99.90;;;;;;5112730;28;20027;-73
2022/10/29 12:27:46;;;;;;;11.70;6.97;;;17.80;99.90;;;;;;5097738;28;20477;-73
2022/10/29 12:30:15;;;;;;;11.30;6.55;;;17.90;99.90;;;;;;5112559;28;20020;-73
2022/10/29 12:32:57;;;;;;;59.20;30.02;;;17.90;99.90;;;;;;5085891;28;20013;-73
2022/10/29 12:35:57;;;;;;;104.17;54.73;;;17.90;99.90;;;;;;5106970;28;20024;-73
2022/10/29 12:38:40;;;;;;;90.50;43.38;;;17.90;99.90;;;;;;5111480;28;20039;-73
2022/10/29 12:41:14;;;;;;;;;;;18.00;99.90;;;;;;5115882;28;20083;-73
2022/10/29 12:43:40;;;;;;;21.80;11.25;;;18.00;99.90;;;;;;5093955;28;20007;-74
2022/10/29 12:46:24;;;;;;;12.43;8.15;;;18.10;99.90;;;;;;5098865;28;20040;-73
2022/10/29 12:49:11;;;;;;;12.48;7.88;;;18.10;99.90;;;;;;5107421;28;20031;-73
2022/10/29 12:51:52;;;;;;;11.88;6.97;;;18.10;99.90;;;;;;5112733;27;20051;-73
2022/10/29 12:54:29;;;;;;;14.73;6.72;;;18.10;99.90;;;;;;5096100;28;20115;-73
2022/10/29 12:56:57;;;;;;;11.65;6.47;;;18.20;99.90;;;;;;5114234;28;20121;-74